Jannik Cornelius

Olheiro-Chefe - FC Midtjylland
3 Abr 2027
Sábado
Processo

Personalidade

Adaptabilidade (17) Ambição (4) Controvérsia (19) Lealdade (7) Pressão (5) Profissionalismo (20) Espírito Esportivo (1) Temperamento (6)

Perfil

Estilo de Treinamento Democrático
Licença Continental B
Determinação 14
Gestão de Pessoas 10
Motivação 6
Disciplina 7
Satisfação no Trabalho
60%
Fadiga
0%
Função Olheiro-Chefe
Salário 59.1K p/s
Contrato 14.03.2030

Desempenho

Comportamento Bom
Eficácia do Treinamento
20%
Desenvolvimento do Jogador
30%
Prevenção de Lesões
60%
Implementação Tática
35%

Eventos Recentes

Avaliou um jogador agora
Participou de uma reunião de recrutamento agora
Recomendou um alvo de transferência agora
Avaliou um jogador agora
Avaliou um jogador 7d atrás
Avaliou um jogador 7d atrás
Avaliou um jogador 7d atrás
Avaliou um jogador 7d atrás

Monitorando agora

152
Jogador Clube Status Habilidade Confiança Observado Última observação Último voto
Mehdi Hashemnejad Tractor Ativo 105 / 117 40% 3 02.04.2027 -
Haissem Hassan Bloemfontein Celtic Ativo 149 / 145 40% 6 02.04.2027 -
Camilo Durán Bloemfontein Celtic Ativo 118 / 106 40% 3 01.04.2027 -
Marquinhos Spartak Moscow Ativo 131 / 141 40% 5 01.04.2027 -
Matthew Targett Hull City Ativo 145 / 132 40% 3 29.03.2027 -
Soufiane Rahimi Al Ain Ativo 132 / 133 40% 2 29.03.2027 -
Axel Openda KV Oostende Ativo 120 / 118 40% 7 28.03.2027 -
Joe Aribo Southampton Ativo 135 / 110 40% 2 27.03.2027 -
Tatsuhiro Sakamoto Coventry City Ativo 114 / 113 40% 1 27.03.2027 -
Fashion Sakala Al-Fayha Ativo 119 / 130 40% 6 26.03.2027 -
Andrew Moran Preston Ativo 131 / 119 40% 3 26.03.2027 -
Rumarn Burrell Queens Park Rangers Ativo 114 / 134 40% 1 26.03.2027 -
Lukáš Provod Slavia Prague Ativo 137 / 137 40% 2 24.03.2027 -
Mohammad Mehdi Mohebi Persepolis Ativo 108 / 123 40% 2 24.03.2027 -
José Paradela Cruz Azul Ativo 154 / 153 40% 2 23.03.2027 -
Bryan Cristante AS Roma Ativo 150 / 145 40% 1 23.03.2027 -
Leandro Andrade Polissia Ativo 135 / 133 40% 12 22.03.2027 -
Jason Al-Fayha Ativo 137 / 112 40% 4 22.03.2027 -
Facundo Torres Shakhtar Ativo 145 / 133 40% 3 19.03.2027 -
Emmanuel Boateng Hapoel Tel Aviv Ativo 123 / 124 40% 1 18.03.2027 -
Ibrahim Tarek Masr El Makasa Ativo 130 / 124 40% 7 17.03.2027 -
Achraf Bencharki Al Ahly Ativo 131 / 139 40% 5 17.03.2027 -
Akinkunmi Amoo Ismaily Ativo 107 / 114 40% 8 16.03.2027 -
Salah Mohsen El Masry Ativo 110 / 130 40% 2 16.03.2027 -
Dan Biton Hapoel Beer Sheva Ativo 139 / 136 40% 2 15.03.2027 -
Oston O'runov Persepolis Ativo 123 / 107 40% 2 12.03.2027 -
Marko Farji Venezia Ativo 114 / 109 40% 1 12.03.2027 -
Percy Erasmus SuperSport United Ativo 143 / 136 40% 3 10.03.2027 -
Zeidane Inoussa Swansea City Ativo 131 / 118 40% 1 10.03.2027 -
Afimico Pululu Al-Hazem Ativo 132 / 115 40% 6 08.03.2027 -
Daniel Kyerewaa Reading Ativo 110 / 115 40% 3 08.03.2027 -
Siyanda Ndlovu Hearts of Oak Ativo 130 / 127 40% 4 08.03.2027 -
Iqraam Rayners Mamelodi Sundowns Ativo 125 / 119 40% 3 04.03.2027 -
Teboho Williams SuperSport United Ativo 111 / 105 40% 7 01.03.2027 -
Domenico Berardi Sassuolo Ativo 157 / 154 40% 1 01.03.2027 -
Juan Bezerra Zamalek Ativo 129 / 135 40% 2 28.02.2027 -
Stanley Mills Oxford United Ativo 127 / 121 40% 1 27.02.2027 -
Timi Max Elšnik Crvena Zvezda Ativo 140 / 138 40% 3 26.02.2027 -
Nemanja Radonjić Crvena Zvezda Ativo 137 / 128 40% 2 25.02.2027 -
Santiago Luján Al Ain Ativo 131 / 109 40% 2 25.02.2027 -
Zizo Al Ahly Ativo 144 / 125 40% 2 22.02.2027 -
Keagan Mothiba SuperSport United Ativo 106 / 112 40% 3 21.02.2027 -
Mathias Jørgensen Blackburn Rovers Ativo 132 / 126 40% 1 20.02.2027 -
Peter Federico Gornik Zabrze Ativo 126 / 131 40% 1 20.02.2027 -
Alex Robertson Cardiff City Ativo 135 / 113 40% 1 18.02.2027 -
Derensili Sanches Fernandes Huddersfield Town Ativo 121 / 134 40% 1 17.02.2027 -
Nazar Voloshyn Dynamo Kyiv Ativo 135 / 118 40% 1 17.02.2027 -
Petar Stanić Ludogorets Ativo 130 / 128 40% 1 17.02.2027 -
Ali Soliman Masr El Makasa Ativo 127 / 128 40% 5 16.02.2027 -
Itumeleng Tau Ajax Cape Town Ativo 104 / 102 40% 3 12.02.2027 -
Tomáš Ladra Viktoria Plzen Ativo 125 / 121 40% 1 12.02.2027 -
Mfundo Vilakazi Kaizer Chiefs Ativo 114 / 108 40% 2 11.02.2027 -
Felipe Augusto Zenit Ativo 138 / 137 40% 1 11.02.2027 -
Armstrong Oko-Flex Levski Ativo 118 / 122 40% 1 11.02.2027 -
Marouan Azarkan Al Nasr Ativo 135 / 126 40% 1 11.02.2027 -
Hidemasa Morita Hull City Ativo 158 / 141 40% 1 10.02.2027 -
Patrick Maswanganyi Orlando Pirates Ativo 114 / 109 40% 6 07.02.2027 -
Domagoj Drožđek Tractor Ativo 122 / 133 40% 2 06.02.2027 -
Cian Ashford Cardiff City Ativo 113 / 128 40% 3 05.02.2027 -
John Okoye Ebuka Ittihad Ativo 106 / 114 40% 1 04.02.2027 -
Tyreece Campbell Charlton Athletic Ativo 132 / 128 40% 1 04.02.2027 -
Ilija Babić Spartak Subotica Ativo 97 / 112 40% 1 04.02.2027 -
Oswin Appollis Orlando Pirates Ativo 124 / 110 40% 3 02.02.2027 -
Jack Diamond Stockport County Ativo 132 / 122 40% 2 02.02.2027 -
Sayfallah Ltaief Cracovia Ativo 127 / 118 40% 1 02.02.2027 -
Theo Bongonda Al-Faisaly Ativo 133 / 134 40% 1 26.01.2027 -
Gerónimo Rivera Al Wahda Ativo 117 / 127 40% 2 25.01.2027 -
Jens Jønsson AGF Ativo 115 / 118 62% 1 25.01.2027 Aprovar
Lukáš Červ Viktoria Plzen Ativo 131 / 131 40% 1 24.01.2027 -
Mehdi Ghayedi Al Nasr Ativo 115 / 110 40% 2 23.01.2027 -
Ryan Hedges Derby County Ativo 115 / 125 40% 1 23.01.2027 -
Serginho Al Wasl Ativo 120 / 136 40% 3 21.01.2027 -
Allahyar Sayyadmanesh Lech Ativo 118 / 115 40% 1 20.01.2027 -
Robert FC Copenhagen Ativo 119 / 136 40% 4 19.01.2027 -
Diego Valencia Gornik Leczna Ativo 117 / 101 40% 1 19.01.2027 -
Arthur Gomes Dinamo Moscow Ativo 133 / 121 40% 1 19.01.2027 -
Emmanuel Dennis Brondby Ativo 123 / 128 40% 1 18.01.2027 -
Bernard Tekpetey Ludogorets Ativo 125 / 127 40% 1 15.01.2027 -
Rodrigo Huescas FC Copenhagen Ativo 139 / 130 40% 6 09.01.2027 -
Stav Toriel Hapoel Tel Aviv Ativo 121 / 135 40% 1 09.01.2027 -
Sergey Pinyaev Lokomotiv Moscow Ativo 118 / 119 40% 1 08.01.2027 -
Mduduzi Shabalala Kaizer Chiefs Ativo 98 / 114 40% 3 07.01.2027 -
Angelo Gattermayer Wolfsberger AC Ativo 128 / 106 40% 2 06.01.2027 -
Lebohang Maboe Kaizer Chiefs Ativo 118 / 111 40% 3 30.12.2026 -
Mikael Anderson AGF Ativo 116 / 128 40% 4 29.12.2026 -
Relebohile Mofokeng Orlando Pirates Ativo 107 / 114 40% 2 29.12.2026 -
Ola Solbakken FC Nordsjaelland Ativo 137 / 114 40% 2 25.12.2026 -
Thapelo Maseko FC Copenhagen Ativo 120 / 108 40% 4 22.12.2026 -
Marco Pineda VfB Stuttgart Rejeitado 158 / 140 40% 4 20.12.2026 Rejeitar
Demarai Gray Birmingham Ativo 128 / 123 40% 1 20.12.2026 -
Majid Dejagah Gostaresh Foulad Rejeitado 127 / 139 40% 3 19.12.2026 Rejeitar
Patrik Wålemark Lech Ativo 131 / 136 40% 4 18.12.2026 -
Nikolas Dyhr Randers Ativo 119 / 126 40% 3 18.12.2026 -
Mads Frøkjær Brondby Ativo 114 / 104 40% 6 16.12.2026 -
Josh Windass Wrexham Ativo 122 / 124 40% 1 14.12.2026 -
Malik Mothersille Stockport County Ativo 121 / 115 40% 1 12.12.2026 -
Teboho Mokoena Mamelodi Sundowns Rejeitado 131 / 138 40% 1 07.12.2026 Mais informações
Marcelino Moreno Lanús Ativo 123 / 145 40% 1 06.12.2026 -
Myles Peart-Harris Plymouth Argyle Ativo 103 / 114 40% 1 04.12.2026 -
Mohamed Elyounoussi FC Copenhagen Ativo 143 / 136 40% 3 03.12.2026 -
Erik Botheim Malmo FF Ativo 137 / 117 40% 1 27.11.2026 -
Jens Petter Hauge Bodo/Glimt Ativo 147 / 140 40% 3 21.11.2026 -
Santiago Montiel Independiente Ativo 116 / 117 40% 1 21.11.2026 -
Emil Ceïde Rosenborg Ativo 123 / 115 40% 1 21.11.2026 -
Alexis Cuello San Lorenzo Ativo 124 / 131 40% 1 20.11.2026 -
Birger Meling FC Copenhagen Ativo 111 / 120 40% 1 17.11.2026 -
Conrad Wallem Valerenga Ativo 131 / 137 40% 2 11.11.2026 -
Bongokuhle Hlongwane Minnesota United FC Ativo 117 / 129 40% 1 10.11.2026 -
Ammar Ramadan DAC Dunajska Streda Ativo 116 / 115 40% 2 05.11.2026 -
Kristian Arnstad AGF Ativo 130 / 118 40% 3 01.11.2026 -
Gift Links AGF Ativo 118 / 139 40% 2 01.11.2026 -
Fernando Valenzuela Queretaro Ativo 129 / 111 40% 1 29.10.2026 -
Alfredo Garcia La Equidad Ativo 154 / 157 40% 4 28.10.2026 -
Jonathan Bamba Chicago Fire Ativo 127 / 142 40% 2 25.10.2026 -
Marcelo Allende Mamelodi Sundowns Ativo 139 / 133 40% 2 24.10.2026 -
Magnus Mattsson FC Copenhagen Ativo 131 / 129 40% 1 24.10.2026 -
Rasmus Carstensen AGF Ativo 126 / 134 40% 1 23.10.2026 -
Franco Cristaldo Talleres Ativo 115 / 135 40% 1 22.10.2026 -
Duncan McGuire Houston Dynamo Ativo 120 / 135 40% 1 20.10.2026 -
Marko Brest Olimpija Ljubljana Ativo 118 / 125 40% 1 18.10.2026 -
Helinho Toluca Ativo 125 / 127 40% 1 17.10.2026 -
Ibrahim Adel FC Nordsjaelland Ativo 135 / 129 40% 1 17.10.2026 -
Ola Brynhildsen Bodo/Glimt Ativo 121 / 115 40% 3 16.10.2026 -
Myrto Uzuni Austin FC Ativo 146 / 116 40% 1 16.10.2026 -
Denis Bouanga Los Angeles Football Club Ativo 125 / 121 40% 2 14.10.2026 -
Kein Sato FC Tokyo Ativo 147 / 132 40% 2 13.10.2026 -
Fiete Arp OB Ativo 137 / 117 40% 2 13.10.2026 -
Quinn Sullivan Philadelphia Union Ativo 113 / 109 40% 2 12.10.2026 -
Jack Harrison New England Revolution Ativo 121 / 120 40% 3 12.10.2026 -
Stijn Spierings Real Salt Lake Ativo 122 / 137 40% 1 06.10.2026 -
Diego Luna Real Salt Lake Ativo 118 / 117 40% 1 04.10.2026 -
Cole Bassett Portland Timbers Ativo 106 / 131 40% 1 04.10.2026 -
Fernando Gorriarán Tigres Ativo 142 / 132 40% 1 30.09.2026 -
Tobias Bech AGF Ativo 116 / 133 40% 1 29.09.2026 -
Bartosz Slisz Brondby Ativo 114 / 131 40% 1 22.09.2026 -
Telasco Segovia Inter Miami CF Ativo 137 / 136 40% 1 19.09.2026 -
Malte Amundsen Columbus Crew Ativo 124 / 134 40% 2 18.09.2026 -
Pep Biel Charlotte Football Club Ativo 135 / 116 40% 1 13.09.2026 -
Edison Flores Aalborg Ativo 126 / 132 40% 1 10.09.2026 -
Aljoša Matko Ujpest Ativo 120 / 110 40% 1 10.09.2026 -
David Da Costa Portland Timbers Ativo 125 / 134 40% 1 09.09.2026 -
Brandon Servania DC United Ativo 122 / 106 40% 1 09.09.2026 -
Herman Johansson FC Dallas Ativo 134 / 142 40% 1 07.09.2026 -
Wessel Dammers Randers Ativo 126 / 130 40% 1 06.09.2026 -
Joao Ortiz Portland Timbers Ativo 129 / 129 40% 1 03.09.2026 -
Shaq Moore FC Dallas Ativo 124 / 137 40% 1 01.09.2026 -
Ismahila Ouédraogo OB Ativo 109 / 125 40% 1 01.09.2026 -
Sam Adekugbe Vancouver Whitecaps Ativo 125 / 133 40% 1 31.08.2026 -
Marcus Ingvartsen San Diego Football Club Ativo 127 / 137 40% 1 31.08.2026 -
Julius Berthel Askou OB Ativo 111 / 108 58% 1 24.08.2026 Aprovar
Alasana Yirajang Slovan Bratislava Ativo 102 / 126 40% 1 11.08.2026 -
Víctor Dávila Club America Ativo 128 / 140 40% 1 01.08.2026 -